sensor_id;sensor_type;location;lat;lon;timestamp;P1;durP1;ratioP1;P2;durP2;ratioP2
1545;SDS011;766;51.502;9.752;2023-07-31T00:02:20;13.07;;;1.95;;
1545;SDS011;766;51.502;9.752;2023-07-31T00:04:48;5.18;;;2.28;;
1545;SDS011;766;51.502;9.752;2023-07-31T00:07:16;4.80;;;1.80;;
1545;SDS011;766;51.502;9.752;2023-07-31T00:09:45;4.63;;;1.70;;
1545;SDS011;766;51.502;9.752;2023-07-31T00:12:13;3.40;;;1.80;;
1545;SDS011;766;51.502;9.752;2023-07-31T00:14:41;4.78;;;1.70;;
1545;SDS011;766;51.502;9.752;2023-07-31T00:17:12;4.82;;;1.63;;
1545;SDS011;766;51.502;9.752;2023-07-31T00:19:41;3.92;;;2.03;;
1545;SDS011;766;51.502;9.752;2023-07-31T00:22:09;4.93;;;1.55;;
1545;SDS011;766;51.502;9.752;2023-07-31T00:24:38;6.35;;;1.50;;
1545;SDS011;766;51.502;9.752;2023-07-31T00:27:06;3.30;;;1.70;;
1545;SDS011;766;51.502;9.752;2023-07-31T00:29:34;6.70;;;1.85;;
1545;SDS011;766;51.502;9.752;2023-07-31T00:32:04;3.20;;;1.75;;
1545;SDS011;766;51.502;9.752;2023-07-31T00:34:34;9.07;;;1.90;;
1545;SDS011;766;51.502;9.752;2023-07-31T00:37:03;5.25;;;1.55;;
1545;SDS011;766;51.502;9.752;2023-07-31T00:39:33;4.68;;;1.80;;
1545;SDS011;766;51.502;9.752;2023-07-31T00:42:02;3.72;;;1.50;;
1545;SDS011;766;51.502;9.752;2023-07-31T00:44:31;5.15;;;1.90;;
1545;SDS011;766;51.502;9.752;2023-07-31T00:47:00;4.70;;;1.73;;
1545;SDS011;766;51.502;9.752;2023-07-31T00:49:29;6.25;;;1.85;;
1545;SDS011;766;51.502;9.752;2023-07-31T00:51:59;4.35;;;1.60;;
1545;SDS011;766;51.502;9.752;2023-07-31T00:54:29;3.75;;;1.70;;
1545;SDS011;766;51.502;9.752;2023-07-31T00:56:57;2.53;;;1.63;;
1545;SDS011;766;51.502;9.752;2023-07-31T00:59:26;3.55;;;1.77;;
1545;SDS011;766;51.502;9.752;2023-07-31T01:01:55;2.20;;;1.60;;
1545;SDS011;766;51.502;9.752;2023-07-31T01:04:24;4.57;;;1.80;;
1545;SDS011;766;51.502;9.752;2023-07-31T01:06:54;4.13;;;1.80;;
1545;SDS011;766;51.502;9.752;2023-07-31T01:09:32;9.10;;;1.58;;
1545;SDS011;766;51.502;9.752;2023-07-31T01:12:05;4.53;;;1.90;;
1545;SDS011;766;51.502;9.752;2023-07-31T01:14:35;5.07;;;1.70;;
1545;SDS011;766;51.502;9.752;2023-07-31T01:17:04;4.43;;;2.08;;
1545;SDS011;766;51.502;9.752;2023-07-31T01:19:32;6.85;;;1.48;;
1545;SDS011;766;51.502;9.752;2023-07-31T01:22:12;4.53;;;2.20;;
1545;SDS011;766;51.502;9.752;2023-07-31T01:24:57;2.83;;;1.50;;
1545;SDS011;766;51.502;9.752;2023-07-31T01:27:36;3.20;;;1.80;;
1545;SDS011;766;51.502;9.752;2023-07-31T01:30:14;9.50;;;2.08;;
1545;SDS011;766;51.502;9.752;2023-07-31T01:32:44;5.10;;;2.10;;
1545;SDS011;766;51.502;9.752;2023-07-31T01:35:16;7.85;;;2.13;;
1545;SDS011;766;51.502;9.752;2023-07-31T01:37:44;4.25;;;2.20;;
1545;SDS011;766;51.502;9.752;2023-07-31T01:40:13;7.03;;;2.17;;
1545;SDS011;766;51.502;9.752;2023-07-31T01:42:43;5.63;;;2.88;;
1545;SDS011;766;51.502;9.752;2023-07-31T01:45:12;4.95;;;1.60;;
1545;SDS011;766;51.502;9.752;2023-07-31T01:47:40;4.75;;;1.60;;
1545;SDS011;766;51.502;9.752;2023-07-31T01:50:09;7.28;;;2.10;;
1545;SDS011;766;51.502;9.752;2023-07-31T01:52:37;4.75;;;1.83;;
1545;SDS011;766;51.502;9.752;2023-07-31T01:55:06;5.65;;;1.90;;
1545;SDS011;766;51.502;9.752;2023-07-31T01:57:36;4.68;;;1.90;;
1545;SDS011;766;51.502;9.752;2023-07-31T02:00:07;2.83;;;1.88;;
1545;SDS011;766;51.502;9.752;2023-07-31T02:02:36;3.28;;;1.85;;
1545;SDS011;766;51.502;9.752;2023-07-31T02:05:07;3.28;;;1.67;;
1545;SDS011;766;51.502;9.752;2023-07-31T02:07:35;5.50;;;2.15;;
1545;SDS011;766;51.502;9.752;2023-07-31T02:10:04;3.88;;;1.90;;
1545;SDS011;766;51.502;9.752;2023-07-31T02:12:33;7.15;;;1.88;;
1545;SDS011;766;51.502;9.752;2023-07-31T02:15:04;3.60;;;1.63;;
1545;SDS011;766;51.502;9.752;2023-07-31T02:17:34;5.07;;;2.33;;
1545;SDS011;766;51.502;9.752;2023-07-31T02:20:03;5.90;;;1.60;;
1545;SDS011;766;51.502;9.752;2023-07-31T02:22:32;5.80;;;1.92;;
1545;SDS011;766;51.502;9.752;2023-07-31T02:25:01;3.38;;;1.77;;
1545;SDS011;766;51.502;9.752;2023-07-31T02:27:29;3.20;;;1.50;;
1545;SDS011;766;51.502;9.752;2023-07-31T02:29:57;2.90;;;1.70;;
1545;SDS011;766;51.502;9.752;2023-07-31T02:32:26;4.28;;;1.92;;
1545;SDS011;766;51.502;9.752;2023-07-31T02:34:56;4.47;;;1.90;;
1545;SDS011;766;51.502;9.752;2023-07-31T02:37:25;4.70;;;1.88;;
1545;SDS011;766;51.502;9.752;2023-07-31T02:39:55;5.35;;;1.90;;
1545;SDS011;766;51.502;9.752;2023-07-31T02:42:23;4.80;;;2.00;;
1545;SDS011;766;51.502;9.752;2023-07-31T02:44:52;4.20;;;2.08;;
1545;SDS011;766;51.502;9.752;2023-07-31T02:47:23;4.63;;;1.98;;
1545;SDS011;766;51.502;9.752;2023-07-31T02:49:51;4.43;;;1.83;;
1545;SDS011;766;51.502;9.752;2023-07-31T02:52:22;4.25;;;2.10;;
1545;SDS011;766;51.502;9.752;2023-07-31T02:54:50;4.97;;;1.85;;
1545;SDS011;766;51.502;9.752;2023-07-31T02:57:19;3.30;;;1.80;;
1545;SDS011;766;51.502;9.752;2023-07-31T02:59:47;2.67;;;1.83;;
1545;SDS011;766;51.502;9.752;2023-07-31T03:02:16;3.03;;;1.60;;
1545;SDS011;766;51.502;9.752;2023-07-31T03:04:45;4.50;;;2.33;;
1545;SDS011;766;51.502;9.752;2023-07-31T03:07:13;7.80;;;2.63;;
1545;SDS011;766;51.502;9.752;2023-07-31T03:09:43;4.38;;;2.10;;
1545;SDS011;766;51.502;9.752;2023-07-31T03:12:11;4.95;;;2.33;;
1545;SDS011;766;51.502;9.752;2023-07-31T03:14:40;4.65;;;2.03;;
1545;SDS011;766;51.502;9.752;2023-07-31T03:17:09;3.40;;;1.90;;
1545;SDS011;766;51.502;9.752;2023-07-31T03:19:37;3.58;;;1.92;;
1545;SDS011;766;51.502;9.752;2023-07-31T03:22:06;6.22;;;2.08;;
1545;SDS011;766;51.502;9.752;2023-07-31T03:24:34;6.72;;;2.45;;
1545;SDS011;766;51.502;9.752;2023-07-31T03:27:06;5.90;;;2.25;;
1545;SDS011;766;51.502;9.752;2023-07-31T03:29:34;3.97;;;2.45;;
1545;SDS011;766;51.502;9.752;2023-07-31T03:32:02;7.43;;;2.70;;
1545;SDS011;766;51.502;9.752;2023-07-31T03:34:31;4.85;;;3.20;;
1545;SDS011;766;51.502;9.752;2023-07-31T03:37:00;4.78;;;2.40;;
1545;SDS011;766;51.502;9.752;2023-07-31T03:39:28;6.68;;;2.97;;
1545;SDS011;766;51.502;9.752;2023-07-31T03:42:00;4.93;;;2.70;;
1545;SDS011;766;51.502;9.752;2023-07-31T03:44:30;6.47;;;2.90;;
1545;SDS011;766;51.502;9.752;2023-07-31T03:46:58;9.40;;;2.85;;
1545;SDS011;766;51.502;9.752;2023-07-31T03:49:27;7.22;;;2.90;;
1545;SDS011;766;51.502;9.752;2023-07-31T03:51:55;4.10;;;2.08;;
1545;SDS011;766;51.502;9.752;2023-07-31T03:54:25;7.70;;;2.70;;
1545;SDS011;766;51.502;9.752;2023-07-31T03:56:54;4.97;;;2.63;;
1545;SDS011;766;51.502;9.752;2023-07-31T03:59:22;5.65;;;2.55;;
1545;SDS011;766;51.502;9.752;2023-07-31T04:01:52;4.45;;;2.72;;
1545;SDS011;766;51.502;9.752;2023-07-31T04:04:21;5.57;;;2.45;;
1545;SDS011;766;51.502;9.752;2023-07-31T04:06:49;5.25;;;2.70;;
1545;SDS011;766;51.502;9.752;2023-07-31T04:09:18;4.72;;;3.33;;
1545;SDS011;766;51.502;9.752;2023-07-31T04:11:50;3.50;;;2.47;;
1545;SDS011;766;51.502;9.752;2023-07-31T04:14:19;4.78;;;2.65;;
1545;SDS011;766;51.502;9.752;2023-07-31T04:16:47;3.55;;;2.47;;
1545;SDS011;766;51.502;9.752;2023-07-31T04:19:18;5.15;;;2.63;;
1545;SDS011;766;51.502;9.752;2023-07-31T04:21:47;4.88;;;2.67;;
1545;SDS011;766;51.502;9.752;2023-07-31T04:24:16;6.07;;;2.95;;
1545;SDS011;766;51.502;9.752;2023-07-31T04:26:53;3.13;;;2.60;;
1545;SDS011;766;51.502;9.752;2023-07-31T04:29:22;7.10;;;2.97;;
1545;SDS011;766;51.502;9.752;2023-07-31T04:31:50;5.75;;;2.60;;
1545;SDS011;766;51.502;9.752;2023-07-31T04:34:20;5.90;;;2.88;;
1545;SDS011;766;51.502;9.752;2023-07-31T04:36:48;4.43;;;3.08;;
1545;SDS011;766;51.502;9.752;2023-07-31T04:39:18;5.63;;;3.38;;
1545;SDS011;766;51.502;9.752;2023-07-31T04:41:48;4.95;;;2.72;;
1545;SDS011;766;51.502;9.752;2023-07-31T04:44:17;6.22;;;3.13;;
1545;SDS011;766;51.502;9.752;2023-07-31T04:46:45;7.00;;;3.03;;
1545;SDS011;766;51.502;9.752;2023-07-31T04:49:13;8.40;;;2.85;;
1545;SDS011;766;51.502;9.752;2023-07-31T04:51:44;5.88;;;2.85;;
1545;SDS011;766;51.502;9.752;2023-07-31T04:54:12;5.57;;;2.53;;
1545;SDS011;766;51.502;9.752;2023-07-31T04:56:41;6.80;;;2.80;;
1545;SDS011;766;51.502;9.752;2023-07-31T04:59:09;5.72;;;3.10;;
1545;SDS011;766;51.502;9.752;2023-07-31T05:01:38;4.80;;;2.67;;
1545;SDS011;766;51.502;9.752;2023-07-31T05:04:10;7.88;;;2.95;;
1545;SDS011;766;51.502;9.752;2023-07-31T05:06:39;6.68;;;2.90;;
1545;SDS011;766;51.502;9.752;2023-07-31T05:09:09;3.58;;;2.30;;
1545;SDS011;766;51.502;9.752;2023-07-31T05:11:38;5.25;;;2.67;;
1545;SDS011;766;51.502;9.752;2023-07-31T05:14:09;4.43;;;2.25;;
1545;SDS011;766;51.502;9.752;2023-07-31T05:16:37;5.00;;;2.90;;
1545;SDS011;766;51.502;9.752;2023-07-31T05:19:07;5.47;;;2.75;;
1545;SDS011;766;51.502;9.752;2023-07-31T05:21:35;4.38;;;2.47;;
1545;SDS011;766;51.502;9.752;2023-07-31T05:24:06;3.80;;;2.58;;
1545;SDS011;766;51.502;9.752;2023-07-31T05:26:39;3.70;;;2.15;;
1545;SDS011;766;51.502;9.752;2023-07-31T05:29:07;3.15;;;2.17;;
1545;SDS011;766;51.502;9.752;2023-07-31T05:31:36;4.93;;;2.50;;
1545;SDS011;766;51.502;9.752;2023-07-31T05:34:05;6.90;;;2.45;;
1545;SDS011;766;51.502;9.752;2023-07-31T05:36:33;6.22;;;2.53;;
1545;SDS011;766;51.502;9.752;2023-07-31T05:39:02;4.20;;;2.20;;
1545;SDS011;766;51.502;9.752;2023-07-31T05:41:33;4.07;;;2.45;;
1545;SDS011;766;51.502;9.752;2023-07-31T05:44:04;7.28;;;2.47;;
1545;SDS011;766;51.502;9.752;2023-07-31T05:46:35;5.53;;;2.75;;
1545;SDS011;766;51.502;9.752;2023-07-31T05:49:04;6.63;;;2.53;;
1545;SDS011;766;51.502;9.752;2023-07-31T05:51:35;6.07;;;2.67;;
1545;SDS011;766;51.502;9.752;2023-07-31T05:54:04;4.20;;;2.40;;
1545;SDS011;766;51.502;9.752;2023-07-31T05:56:32;5.68;;;2.20;;
1545;SDS011;766;51.502;9.752;2023-07-31T05:59:01;4.72;;;2.42;;
1545;SDS011;766;51.502;9.752;2023-07-31T06:01:33;7.07;;;2.78;;
1545;SDS011;766;51.502;9.752;2023-07-31T06:04:01;6.22;;;2.53;;
1545;SDS011;766;51.502;9.752;2023-07-31T06:06:31;5.93;;;2.38;;
1545;SDS011;766;51.502;9.752;2023-07-31T06:08:59;10.57;;;2.55;;
1545;SDS011;766;51.502;9.752;2023-07-31T06:11:27;6.55;;;3.15;;
1545;SDS011;766;51.502;9.752;2023-07-31T06:13:56;5.78;;;2.63;;
1545;SDS011;766;51.502;9.752;2023-07-31T06:16:26;3.78;;;2.63;;
1545;SDS011;766;51.502;9.752;2023-07-31T06:18:54;6.22;;;2.92;;
1545;SDS011;766;51.502;9.752;2023-07-31T06:21:22;5.43;;;2.63;;
1545;SDS011;766;51.502;9.752;2023-07-31T06:23:51;5.60;;;2.80;;
1545;SDS011;766;51.502;9.752;2023-07-31T06:26:19;5.55;;;2.42;;
1545;SDS011;766;51.502;9.752;2023-07-31T06:28:48;5.72;;;2.35;;
1545;SDS011;766;51.502;9.752;2023-07-31T06:31:16;7.00;;;2.78;;
1545;SDS011;766;51.502;9.752;2023-07-31T06:33:49;5.57;;;2.67;;
1545;SDS011;766;51.502;9.752;2023-07-31T06:36:17;5.03;;;2.72;;
1545;SDS011;766;51.502;9.752;2023-07-31T06:38:46;6.28;;;2.60;;
1545;SDS011;766;51.502;9.752;2023-07-31T06:41:14;5.82;;;3.00;;
1545;SDS011;766;51.502;9.752;2023-07-31T06:43:43;5.15;;;2.33;;
1545;SDS011;766;51.502;9.752;2023-07-31T06:46:11;4.22;;;2.75;;
1545;SDS011;766;51.502;9.752;2023-07-31T06:48:40;11.68;;;2.90;;
1545;SDS011;766;51.502;9.752;2023-07-31T06:51:10;7.50;;;2.80;;
1545;SDS011;766;51.502;9.752;2023-07-31T06:53:38;6.55;;;2.75;;
1545;SDS011;766;51.502;9.752;2023-07-31T06:56:07;5.53;;;2.58;;
1545;SDS011;766;51.502;9.752;2023-07-31T06:58:36;4.22;;;2.53;;
1545;SDS011;766;51.502;9.752;2023-07-31T07:01:04;4.30;;;2.78;;
1545;SDS011;766;51.502;9.752;2023-07-31T07:03:32;4.25;;;2.40;;
1545;SDS011;766;51.502;9.752;2023-07-31T07:06:01;5.15;;;2.20;;
1545;SDS011;766;51.502;9.752;2023-07-31T07:08:31;7.20;;;2.65;;
1545;SDS011;766;51.502;9.752;2023-07-31T07:10:59;4.78;;;2.38;;
1545;SDS011;766;51.502;9.752;2023-07-31T07:13:27;3.70;;;2.50;;
1545;SDS011;766;51.502;9.752;2023-07-31T07:15:56;3.67;;;2.28;;
1545;SDS011;766;51.502;9.752;2023-07-31T07:18:27;4.82;;;2.30;;
1545;SDS011;766;51.502;9.752;2023-07-31T07:20:57;5.25;;;2.25;;
1545;SDS011;766;51.502;9.752;2023-07-31T07:23:28;5.80;;;3.03;;
1545;SDS011;766;51.502;9.752;2023-07-31T07:25:58;4.22;;;2.72;;
1545;SDS011;766;51.502;9.752;2023-07-31T07:28:29;4.18;;;2.55;;
1545;SDS011;766;51.502;9.752;2023-07-31T07:30:57;5.97;;;3.17;;
1545;SDS011;766;51.502;9.752;2023-07-31T07:33:26;6.88;;;3.42;;
1545;SDS011;766;51.502;9.752;2023-07-31T07:35:55;6.03;;;3.00;;
1545;SDS011;766;51.502;9.752;2023-07-31T07:38:27;5.80;;;3.40;;
1545;SDS011;766;51.502;9.752;2023-07-31T07:40:55;7.13;;;3.00;;
1545;SDS011;766;51.502;9.752;2023-07-31T07:43:25;4.28;;;2.90;;
1545;SDS011;766;51.502;9.752;2023-07-31T07:45:53;5.05;;;2.85;;
1545;SDS011;766;51.502;9.752;2023-07-31T07:48:22;7.18;;;2.88;;
1545;SDS011;766;51.502;9.752;2023-07-31T07:50:51;5.63;;;2.90;;
1545;SDS011;766;51.502;9.752;2023-07-31T07:53:20;11.77;;;2.65;;
1545;SDS011;766;51.502;9.752;2023-07-31T07:55:48;5.45;;;2.78;;
1545;SDS011;766;51.502;9.752;2023-07-31T07:58:16;6.43;;;2.80;;
1545;SDS011;766;51.502;9.752;2023-07-31T08:00:49;6.65;;;3.17;;
1545;SDS011;766;51.502;9.752;2023-07-31T08:03:18;6.85;;;2.80;;
1545;SDS011;766;51.502;9.752;2023-07-31T08:05:47;7.53;;;2.92;;
1545;SDS011;766;51.502;9.752;2023-07-31T08:08:16;5.97;;;3.50;;
1545;SDS011;766;51.502;9.752;2023-07-31T08:10:44;7.22;;;3.40;;
1545;SDS011;766;51.502;9.752;2023-07-31T08:13:13;6.22;;;3.30;;
1545;SDS011;766;51.502;9.752;2023-07-31T08:15:41;5.85;;;3.20;;
1545;SDS011;766;51.502;9.752;2023-07-31T08:18:11;5.10;;;3.00;;
1545;SDS011;766;51.502;9.752;2023-07-31T08:20:40;9.73;;;3.20;;
1545;SDS011;766;51.502;9.752;2023-07-31T08:23:08;5.15;;;2.97;;
1545;SDS011;766;51.502;9.752;2023-07-31T08:25:37;7.53;;;3.42;;
1545;SDS011;766;51.502;9.752;2023-07-31T08:28:06;6.45;;;3.35;;
1545;SDS011;766;51.502;9.752;2023-07-31T08:30:35;5.90;;;2.80;;
1545;SDS011;766;51.502;9.752;2023-07-31T08:33:03;5.50;;;3.33;;
1545;SDS011;766;51.502;9.752;2023-07-31T08:35:33;7.40;;;3.20;;
1545;SDS011;766;51.502;9.752;2023-07-31T08:38:01;6.65;;;3.20;;
1545;SDS011;766;51.502;9.752;2023-07-31T08:40:29;8.77;;;3.53;;
1545;SDS011;766;51.502;9.752;2023-07-31T08:42:58;6.88;;;3.05;;
1545;SDS011;766;51.502;9.752;2023-07-31T08:45:29;6.72;;;3.55;;
1545;SDS011;766;51.502;9.752;2023-07-31T08:47:58;4.63;;;2.65;;
1545;SDS011;766;51.502;9.752;2023-07-31T08:50:27;5.28;;;3.00;;
1545;SDS011;766;51.502;9.752;2023-07-31T08:52:59;8.63;;;3.33;;
1545;SDS011;766;51.502;9.752;2023-07-31T08:55:28;5.78;;;2.97;;
1545;SDS011;766;51.502;9.752;2023-07-31T08:57:56;8.85;;;3.10;;
1545;SDS011;766;51.502;9.752;2023-07-31T09:00:26;6.35;;;3.10;;
1545;SDS011;766;51.502;9.752;2023-07-31T09:02:57;5.65;;;3.75;;
1545;SDS011;766;51.502;9.752;2023-07-31T09:05:29;7.00;;;3.10;;
1545;SDS011;766;51.502;9.752;2023-07-31T09:08:00;6.40;;;2.72;;
1545;SDS011;766;51.502;9.752;2023-07-31T09:10:32;8.85;;;3.15;;
1545;SDS011;766;51.502;9.752;2023-07-31T09:13:00;7.65;;;3.67;;
1545;SDS011;766;51.502;9.752;2023-07-31T09:15:30;6.72;;;3.25;;
1545;SDS011;766;51.502;9.752;2023-07-31T09:18:04;5.72;;;3.38;;
1545;SDS011;766;51.502;9.752;2023-07-31T09:20:35;4.75;;;2.70;;
1545;SDS011;766;51.502;9.752;2023-07-31T09:23:06;8.38;;;3.30;;
1545;SDS011;766;51.502;9.752;2023-07-31T09:25:36;8.48;;;3.30;;
1545;SDS011;766;51.502;9.752;2023-07-31T09:28:05;7.80;;;3.33;;
1545;SDS011;766;51.502;9.752;2023-07-31T09:30:45;5.68;;;3.38;;
1545;SDS011;766;51.502;9.752;2023-07-31T09:33:15;4.75;;;2.88;;
1545;SDS011;766;51.502;9.752;2023-07-31T09:35:44;6.25;;;3.75;;
1545;SDS011;766;51.502;9.752;2023-07-31T09:38:14;5.85;;;3.30;;
1545;SDS011;766;51.502;9.752;2023-07-31T09:40:43;4.30;;;2.80;;
1545;SDS011;766;51.502;9.752;2023-07-31T09:43:16;6.70;;;2.88;;
1545;SDS011;766;51.502;9.752;2023-07-31T09:45:46;5.35;;;2.83;;
1545;SDS011;766;51.502;9.752;2023-07-31T09:48:18;3.90;;;2.90;;
1545;SDS011;766;51.502;9.752;2023-07-31T09:50:48;4.72;;;3.00;;
1545;SDS011;766;51.502;9.752;2023-07-31T09:53:18;9.88;;;3.17;;
1545;SDS011;766;51.502;9.752;2023-07-31T09:55:46;5.20;;;2.78;;
1545;SDS011;766;51.502;9.752;2023-07-31T09:58:15;5.68;;;3.40;;
1545;SDS011;766;51.502;9.752;2023-07-31T10:00:43;5.20;;;2.85;;
1545;SDS011;766;51.502;9.752;2023-07-31T10:03:13;6.63;;;3.13;;
1545;SDS011;766;51.502;9.752;2023-07-31T10:05:46;6.32;;;3.25;;
1545;SDS011;766;51.502;9.752;2023-07-31T10:08:21;4.50;;;2.47;;
1545;SDS011;766;51.502;9.752;2023-07-31T10:10:56;3.38;;;2.47;;
1545;SDS011;766;51.502;9.752;2023-07-31T10:13:26;6.32;;;2.58;;
1545;SDS011;766;51.502;9.752;2023-07-31T10:15:58;6.65;;;3.03;;
1545;SDS011;766;51.502;9.752;2023-07-31T10:18:27;6.18;;;2.83;;
1545;SDS011;766;51.502;9.752;2023-07-31T10:20:57;5.45;;;2.45;;
1545;SDS011;766;51.502;9.752;2023-07-31T10:23:27;5.22;;;2.40;;
1545;SDS011;766;51.502;9.752;2023-07-31T10:25:56;4.55;;;3.03;;
1545;SDS011;766;51.502;9.752;2023-07-31T10:28:26;7.03;;;2.65;;
1545;SDS011;766;51.502;9.752;2023-07-31T10:30:56;6.30;;;3.00;;
1545;SDS011;766;51.502;9.752;2023-07-31T10:33:25;6.45;;;3.03;;
1545;SDS011;766;51.502;9.752;2023-07-31T10:38:42;6.10;;;3.33;;
1545;SDS011;766;51.502;9.752;2023-07-31T10:41:12;6.85;;;3.03;;
1545;SDS011;766;51.502;9.752;2023-07-31T10:43:41;4.22;;;2.90;;
1545;SDS011;766;51.502;9.752;2023-07-31T10:46:11;4.75;;;3.20;;
1545;SDS011;766;51.502;9.752;2023-07-31T10:48:41;5.05;;;3.40;;
1545;SDS011;766;51.502;9.752;2023-07-31T10:51:10;6.63;;;3.40;;
1545;SDS011;766;51.502;9.752;2023-07-31T10:53:39;7.63;;;3.15;;
1545;SDS011;766;51.502;9.752;2023-07-31T10:56:09;8.50;;;3.40;;
1545;SDS011;766;51.502;9.752;2023-07-31T10:58:40;5.20;;;3.30;;
1545;SDS011;766;51.502;9.752;2023-07-31T11:01:12;6.60;;;3.53;;
1545;SDS011;766;51.502;9.752;2023-07-31T11:03:41;9.70;;;3.08;;
1545;SDS011;766;51.502;9.752;2023-07-31T11:06:11;6.38;;;3.90;;
1545;SDS011;766;51.502;9.752;2023-07-31T11:08:46;7.85;;;3.67;;
1545;SDS011;766;51.502;9.752;2023-07-31T11:11:15;7.47;;;3.67;;
1545;SDS011;766;51.502;9.752;2023-07-31T11:13:45;8.52;;;3.58;;
1545;SDS011;766;51.502;9.752;2023-07-31T11:16:16;7.72;;;3.95;;
1545;SDS011;766;51.502;9.752;2023-07-31T11:18:46;7.13;;;4.13;;
1545;SDS011;766;51.502;9.752;2023-07-31T11:21:16;7.82;;;3.67;;
1545;SDS011;766;51.502;9.752;2023-07-31T11:24:00;6.10;;;3.47;;
1545;SDS011;766;51.502;9.752;2023-07-31T11:26:28;9.30;;;4.13;;
1545;SDS011;766;51.502;9.752;2023-07-31T11:28:57;9.23;;;4.20;;
1545;SDS011;766;51.502;9.752;2023-07-31T11:31:26;7.03;;;4.00;;
1545;SDS011;766;51.502;9.752;2023-07-31T11:34:06;7.32;;;3.53;;
1545;SDS011;766;51.502;9.752;2023-07-31T11:36:34;8.40;;;3.70;;
1545;SDS011;766;51.502;9.752;2023-07-31T11:39:08;8.23;;;3.60;;
1545;SDS011;766;51.502;9.752;2023-07-31T11:41:40;9.10;;;4.07;;
1545;SDS011;766;51.502;9.752;2023-07-31T11:44:12;7.45;;;3.92;;
1545;SDS011;766;51.502;9.752;2023-07-31T11:46:56;6.82;;;4.28;;
1545;SDS011;766;51.502;9.752;2023-07-31T11:49:26;6.75;;;3.35;;
1545;SDS011;766;51.502;9.752;2023-07-31T11:52:02;8.02;;;4.15;;
1545;SDS011;766;51.502;9.752;2023-07-31T11:54:32;7.57;;;3.63;;
1545;SDS011;766;51.502;9.752;2023-07-31T11:57:01;10.80;;;3.80;;
1545;SDS011;766;51.502;9.752;2023-07-31T11:59:31;7.30;;;3.58;;
1545;SDS011;766;51.502;9.752;2023-07-31T12:02:00;9.82;;;3.65;;
1545;SDS011;766;51.502;9.752;2023-07-31T12:04:28;6.00;;;3.20;;
1545;SDS011;766;51.502;9.752;2023-07-31T12:06:57;6.40;;;2.85;;
1545;SDS011;766;51.502;9.752;2023-07-31T12:09:28;6.10;;;3.05;;
1545;SDS011;766;51.502;9.752;2023-07-31T12:11:58;4.75;;;2.85;;
1545;SDS011;766;51.502;9.752;2023-07-31T12:14:27;5.35;;;3.47;;
1545;SDS011;766;51.502;9.752;2023-07-31T12:16:56;4.28;;;2.63;;
1545;SDS011;766;51.502;9.752;2023-07-31T12:19:26;7.10;;;3.17;;
1545;SDS011;766;51.502;9.752;2023-07-31T12:22:00;7.53;;;2.80;;
1545;SDS011;766;51.502;9.752;2023-07-31T12:24:30;5.85;;;2.75;;
1545;SDS011;766;51.502;9.752;2023-07-31T12:27:09;6.68;;;3.72;;
1545;SDS011;766;51.502;9.752;2023-07-31T12:29:45;5.28;;;2.75;;
1545;SDS011;766;51.502;9.752;2023-07-31T12:32:29;6.05;;;3.03;;
1545;SDS011;766;51.502;9.752;2023-07-31T12:35:08;6.20;;;3.15;;
1545;SDS011;766;51.502;9.752;2023-07-31T12:37:48;7.60;;;3.17;;
1545;SDS011;766;51.502;9.752;2023-07-31T12:40:16;5.57;;;2.97;;
1545;SDS011;766;51.502;9.752;2023-07-31T12:42:54;4.18;;;2.95;;
1545;SDS011;766;51.502;9.752;2023-07-31T12:45:23;5.38;;;3.10;;
1545;SDS011;766;51.502;9.752;2023-07-31T12:47:51;4.70;;;2.67;;
1545;SDS011;766;51.502;9.752;2023-07-31T12:50:22;3.78;;;2.65;;
1545;SDS011;766;51.502;9.752;2023-07-31T12:52:57;4.05;;;2.78;;
1545;SDS011;766;51.502;9.752;2023-07-31T12:55:26;4.53;;;3.00;;
1545;SDS011;766;51.502;9.752;2023-07-31T12:57:56;7.10;;;3.13;;
1545;SDS011;766;51.502;9.752;2023-07-31T13:00:24;6.72;;;3.33;;
1545;SDS011;766;51.502;9.752;2023-07-31T13:02:53;5.53;;;2.78;;
1545;SDS011;766;51.502;9.752;2023-07-31T13:05:26;7.72;;;3.25;;
1545;SDS011;766;51.502;9.752;2023-07-31T13:08:26;7.85;;;3.60;;
1545;SDS011;766;51.502;9.752;2023-07-31T13:10:55;5.70;;;3.20;;
1545;SDS011;766;51.502;9.752;2023-07-31T13:13:24;8.82;;;3.40;;
1545;SDS011;766;51.502;9.752;2023-07-31T13:15:55;4.93;;;3.50;;
1545;SDS011;766;51.502;9.752;2023-07-31T13:18:23;7.55;;;4.10;;
1545;SDS011;766;51.502;9.752;2023-07-31T13:20:52;6.70;;;3.60;;
1545;SDS011;766;51.502;9.752;2023-07-31T13:23:20;7.88;;;3.63;;
1545;SDS011;766;51.502;9.752;2023-07-31T13:25:51;7.25;;;3.60;;
1545;SDS011;766;51.502;9.752;2023-07-31T13:28:20;8.48;;;3.97;;
1545;SDS011;766;51.502;9.752;2023-07-31T13:30:50;6.18;;;3.47;;
1545;SDS011;766;51.502;9.752;2023-07-31T13:33:18;6.65;;;3.72;;
1545;SDS011;766;51.502;9.752;2023-07-31T13:36:02;7.10;;;3.75;;
1545;SDS011;766;51.502;9.752;2023-07-31T13:38:31;10.60;;;3.65;;
1545;SDS011;766;51.502;9.752;2023-07-31T13:40:59;7.90;;;3.70;;
1545;SDS011;766;51.502;9.752;2023-07-31T13:43:27;7.53;;;3.80;;
1545;SDS011;766;51.502;9.752;2023-07-31T13:45:57;7.03;;;3.47;;
1545;SDS011;766;51.502;9.752;2023-07-31T13:48:30;11.52;;;3.38;;
1545;SDS011;766;51.502;9.752;2023-07-31T13:50:59;7.53;;;3.63;;
1545;SDS011;766;51.502;9.752;2023-07-31T13:53:27;7.05;;;3.83;;
1545;SDS011;766;51.502;9.752;2023-07-31T13:55:56;7.07;;;3.40;;
1545;SDS011;766;51.502;9.752;2023-07-31T13:58:24;5.38;;;2.92;;
1545;SDS011;766;51.502;9.752;2023-07-31T14:00:53;6.60;;;3.47;;
1545;SDS011;766;51.502;9.752;2023-07-31T14:03:23;7.68;;;3.47;;
1545;SDS011;766;51.502;9.752;2023-07-31T14:05:51;6.57;;;3.25;;
1545;SDS011;766;51.502;9.752;2023-07-31T14:08:20;6.15;;;3.17;;
1545;SDS011;766;51.502;9.752;2023-07-31T14:10:48;11.20;;;3.53;;
1545;SDS011;766;51.502;9.752;2023-07-31T14:13:17;11.88;;;3.42;;
1545;SDS011;766;51.502;9.752;2023-07-31T14:15:45;8.25;;;3.58;;
1545;SDS011;766;51.502;9.752;2023-07-31T14:18:13;5.35;;;3.10;;
1545;SDS011;766;51.502;9.752;2023-07-31T14:20:43;8.50;;;3.15;;
1545;SDS011;766;51.502;9.752;2023-07-31T14:23:12;11.15;;;2.55;;
1545;SDS011;766;51.502;9.752;2023-07-31T14:25:42;6.00;;;2.83;;
1545;SDS011;766;51.502;9.752;2023-07-31T14:28:10;8.45;;;2.72;;
1545;SDS011;766;51.502;9.752;2023-07-31T14:30:38;4.68;;;2.90;;
1545;SDS011;766;51.502;9.752;2023-07-31T14:33:07;4.50;;;2.15;;
1545;SDS011;766;51.502;9.752;2023-07-31T14:35:35;9.95;;;3.03;;
1545;SDS011;766;51.502;9.752;2023-07-31T14:38:05;4.68;;;2.67;;
1545;SDS011;766;51.502;9.752;2023-07-31T14:40:33;6.55;;;2.95;;
1545;SDS011;766;51.502;9.752;2023-07-31T14:43:03;7.22;;;2.80;;
1545;SDS011;766;51.502;9.752;2023-07-31T14:45:31;7.80;;;2.90;;
1545;SDS011;766;51.502;9.752;2023-07-31T14:48:00;9.07;;;2.90;;
1545;SDS011;766;51.502;9.752;2023-07-31T14:50:29;5.45;;;2.42;;
1545;SDS011;766;51.502;9.752;2023-07-31T14:52:58;8.82;;;3.00;;
1545;SDS011;766;51.502;9.752;2023-07-31T14:55:27;6.28;;;2.75;;
1545;SDS011;766;51.502;9.752;2023-07-31T14:57:56;6.40;;;2.72;;
1545;SDS011;766;51.502;9.752;2023-07-31T15:00:24;4.53;;;2.88;;
1545;SDS011;766;51.502;9.752;2023-07-31T15:02:53;7.32;;;2.78;;
1545;SDS011;766;51.502;9.752;2023-07-31T15:05:21;3.78;;;2.70;;
1545;SDS011;766;51.502;9.752;2023-07-31T15:07:49;7.53;;;2.83;;
1545;SDS011;766;51.502;9.752;2023-07-31T15:10:18;4.30;;;2.42;;
1545;SDS011;766;51.502;9.752;2023-07-31T15:18:14;4.25;;;2.28;;
1545;SDS011;766;51.502;9.752;2023-07-31T15:20:42;4.82;;;2.47;;
1545;SDS011;766;51.502;9.752;2023-07-31T15:23:11;5.80;;;2.45;;
1545;SDS011;766;51.502;9.752;2023-07-31T15:25:42;3.55;;;2.10;;
1545;SDS011;766;51.502;9.752;2023-07-31T15:28:14;5.05;;;2.28;;
1545;SDS011;766;51.502;9.752;2023-07-31T15:30:48;4.22;;;2.40;;
1545;SDS011;766;51.502;9.752;2023-07-31T15:33:21;3.90;;;2.67;;
1545;SDS011;766;51.502;9.752;2023-07-31T15:35:50;3.35;;;2.30;;
1545;SDS011;766;51.502;9.752;2023-07-31T15:38:22;6.50;;;2.53;;
1545;SDS011;766;51.502;9.752;2023-07-31T15:40:51;4.90;;;2.55;;
1545;SDS011;766;51.502;9.752;2023-07-31T15:43:20;4.93;;;2.63;;
1545;SDS011;766;51.502;9.752;2023-07-31T15:45:53;8.20;;;2.35;;
1545;SDS011;766;51.502;9.752;2023-07-31T15:48:24;3.10;;;2.40;;
1545;SDS011;766;51.502;9.752;2023-07-31T15:50:54;5.05;;;2.35;;
1545;SDS011;766;51.502;9.752;2023-07-31T15:53:23;5.40;;;2.40;;
1545;SDS011;766;51.502;9.752;2023-07-31T15:55:51;5.78;;;2.30;;